sensor_id;sensor_type;location;lat;lon;timestamp;P1;durP1;ratioP1;P2;durP2;ratioP2
22794;SDS011;11564;50.920;11.612;2022-08-27T00:01:14;24.27;;;18.30;;
22794;SDS011;11564;50.920;11.612;2022-08-27T00:03:41;22.60;;;18.07;;
22794;SDS011;11564;50.920;11.612;2022-08-27T00:06:09;27.07;;;19.97;;
22794;SDS011;11564;50.920;11.612;2022-08-27T00:08:38;24.10;;;19.30;;
22794;SDS011;11564;50.920;11.612;2022-08-27T00:11:04;23.03;;;19.17;;
22794;SDS011;11564;50.920;11.612;2022-08-27T00:13:29;21.03;;;16.90;;
22794;SDS011;11564;50.920;11.612;2022-08-27T00:15:55;34.50;;;19.90;;
22794;SDS011;11564;50.920;11.612;2022-08-27T00:18:21;24.37;;;19.47;;
22794;SDS011;11564;50.920;11.612;2022-08-27T00:20:46;27.67;;;19.83;;
22794;SDS011;11564;50.920;11.612;2022-08-27T00:23:12;23.00;;;19.27;;
22794;SDS011;11564;50.920;11.612;2022-08-27T00:25:38;31.13;;;20.63;;
22794;SDS011;11564;50.920;11.612;2022-08-27T00:28:04;27.63;;;19.60;;
22794;SDS011;11564;50.920;11.612;2022-08-27T00:30:30;26.27;;;21.60;;
22794;SDS011;11564;50.920;11.612;2022-08-27T00:32:55;22.77;;;20.33;;
22794;SDS011;11564;50.920;11.612;2022-08-27T00:35:21;23.87;;;18.97;;
22794;SDS011;11564;50.920;11.612;2022-08-27T00:37:46;27.10;;;20.13;;
22794;SDS011;11564;50.920;11.612;2022-08-27T00:40:14;22.07;;;19.53;;
22794;SDS011;11564;50.920;11.612;2022-08-27T00:42:42;23.50;;;19.00;;
22794;SDS011;11564;50.920;11.612;2022-08-27T00:45:10;27.30;;;20.30;;
22794;SDS011;11564;50.920;11.612;2022-08-27T00:47:40;26.63;;;20.43;;
22794;SDS011;11564;50.920;11.612;2022-08-27T00:50:15;25.10;;;19.90;;
22794;SDS011;11564;50.920;11.612;2022-08-27T00:52:45;30.03;;;20.50;;
22794;SDS011;11564;50.920;11.612;2022-08-27T00:55:23;25.37;;;19.40;;
22794;SDS011;11564;50.920;11.612;2022-08-27T00:58:21;25.53;;;20.37;;
22794;SDS011;11564;50.920;11.612;2022-08-27T01:00:46;24.10;;;18.53;;
22794;SDS011;11564;50.920;11.612;2022-08-27T01:03:13;31.30;;;19.53;;
22794;SDS011;11564;50.920;11.612;2022-08-27T01:05:39;22.83;;;18.93;;
22794;SDS011;11564;50.920;11.612;2022-08-27T01:08:12;25.33;;;20.40;;
22794;SDS011;11564;50.920;11.612;2022-08-27T01:10:41;25.60;;;21.60;;
22794;SDS011;11564;50.920;11.612;2022-08-27T01:13:08;24.80;;;18.90;;
22794;SDS011;11564;50.920;11.612;2022-08-27T01:15:36;30.63;;;21.00;;
22794;SDS011;11564;50.920;11.612;2022-08-27T01:18:04;23.77;;;20.50;;
22794;SDS011;11564;50.920;11.612;2022-08-27T01:20:34;28.93;;;20.90;;
22794;SDS011;11564;50.920;11.612;2022-08-27T01:25:52;29.27;;;20.30;;
22794;SDS011;11564;50.920;11.612;2022-08-27T01:28:18;23.17;;;19.00;;
22794;SDS011;11564;50.920;11.612;2022-08-27T01:30:46;26.40;;;20.13;;
22794;SDS011;11564;50.920;11.612;2022-08-27T01:33:13;31.13;;;21.73;;
22794;SDS011;11564;50.920;11.612;2022-08-27T01:35:43;31.23;;;22.30;;
22794;SDS011;11564;50.920;11.612;2022-08-27T01:38:11;28.40;;;20.90;;
22794;SDS011;11564;50.920;11.612;2022-08-27T01:40:37;26.87;;;20.00;;
22794;SDS011;11564;50.920;11.612;2022-08-27T01:43:03;28.17;;;20.77;;
22794;SDS011;11564;50.920;11.612;2022-08-27T01:45:33;25.60;;;20.50;;
22794;SDS011;11564;50.920;11.612;2022-08-27T01:48:01;26.90;;;19.77;;
22794;SDS011;11564;50.920;11.612;2022-08-27T01:50:29;27.53;;;21.00;;
22794;SDS011;11564;50.920;11.612;2022-08-27T01:53:00;31.63;;;20.80;;
22794;SDS011;11564;50.920;11.612;2022-08-27T01:55:31;29.90;;;22.00;;
22794;SDS011;11564;50.920;11.612;2022-08-27T01:57:57;33.83;;;21.73;;
22794;SDS011;11564;50.920;11.612;2022-08-27T02:00:27;23.43;;;20.87;;
22794;SDS011;11564;50.920;11.612;2022-08-27T02:02:56;25.93;;;21.17;;
22794;SDS011;11564;50.920;11.612;2022-08-27T02:05:22;38.63;;;21.03;;
22794;SDS011;11564;50.920;11.612;2022-08-27T02:07:48;29.43;;;20.87;;
22794;SDS011;11564;50.920;11.612;2022-08-27T02:10:16;25.83;;;20.10;;
22794;SDS011;11564;50.920;11.612;2022-08-27T02:12:46;32.27;;;21.37;;
22794;SDS011;11564;50.920;11.612;2022-08-27T02:15:11;32.43;;;22.47;;
22794;SDS011;11564;50.920;11.612;2022-08-27T02:17:37;31.67;;;21.43;;
22794;SDS011;11564;50.920;11.612;2022-08-27T02:20:04;28.60;;;20.33;;
22794;SDS011;11564;50.920;11.612;2022-08-27T02:22:33;32.10;;;22.83;;
22794;SDS011;11564;50.920;11.612;2022-08-27T02:24:59;27.07;;;21.10;;
22794;SDS011;11564;50.920;11.612;2022-08-27T02:27:24;29.27;;;21.27;;
22794;SDS011;11564;50.920;11.612;2022-08-27T02:29:50;27.20;;;21.53;;
22794;SDS011;11564;50.920;11.612;2022-08-27T02:32:16;29.37;;;22.33;;
22794;SDS011;11564;50.920;11.612;2022-08-27T02:34:42;31.13;;;21.50;;
22794;SDS011;11564;50.920;11.612;2022-08-27T02:37:08;30.27;;;22.43;;
22794;SDS011;11564;50.920;11.612;2022-08-27T02:39:33;26.80;;;20.17;;
22794;SDS011;11564;50.920;11.612;2022-08-27T02:41:59;31.13;;;22.30;;
22794;SDS011;11564;50.920;11.612;2022-08-27T02:44:25;31.57;;;21.60;;
22794;SDS011;11564;50.920;11.612;2022-08-27T02:46:51;25.30;;;20.60;;
22794;SDS011;11564;50.920;11.612;2022-08-27T02:49:17;31.47;;;21.37;;
22794;SDS011;11564;50.920;11.612;2022-08-27T02:51:42;27.60;;;21.33;;
22794;SDS011;11564;50.920;11.612;2022-08-27T02:54:08;26.03;;;21.40;;
22794;SDS011;11564;50.920;11.612;2022-08-27T02:56:34;34.47;;;22.60;;
22794;SDS011;11564;50.920;11.612;2022-08-27T02:59:01;29.93;;;22.23;;
22794;SDS011;11564;50.920;11.612;2022-08-27T03:01:26;36.37;;;20.90;;
22794;SDS011;11564;50.920;11.612;2022-08-27T03:03:52;36.13;;;20.97;;
22794;SDS011;11564;50.920;11.612;2022-08-27T03:06:18;28.17;;;22.27;;
22794;SDS011;11564;50.920;11.612;2022-08-27T03:08:43;34.63;;;21.37;;
22794;SDS011;11564;50.920;11.612;2022-08-27T03:11:09;27.63;;;20.97;;
22794;SDS011;11564;50.920;11.612;2022-08-27T03:13:37;29.73;;;22.20;;
22794;SDS011;11564;50.920;11.612;2022-08-27T03:16:03;33.73;;;21.70;;
22794;SDS011;11564;50.920;11.612;2022-08-27T03:18:30;33.83;;;22.83;;
22794;SDS011;11564;50.920;11.612;2022-08-27T03:20:57;28.07;;;21.80;;
22794;SDS011;11564;50.920;11.612;2022-08-27T03:23:25;24.30;;;20.00;;
22794;SDS011;11564;50.920;11.612;2022-08-27T03:25:54;26.20;;;21.07;;
22794;SDS011;11564;50.920;11.612;2022-08-27T03:28:24;29.07;;;19.70;;
22794;SDS011;11564;50.920;11.612;2022-08-27T03:30:52;30.73;;;21.60;;
22794;SDS011;11564;50.920;11.612;2022-08-27T09:19:17;25.30;;;17.95;;
22794;SDS011;11564;50.920;11.612;2022-08-27T14:19:59;6.53;;;5.90;;
22794;SDS011;11564;50.920;11.612;2022-08-27T14:22:26;9.37;;;6.70;;
22794;SDS011;11564;50.920;11.612;2022-08-27T14:24:52;6.80;;;5.97;;
22794;SDS011;11564;50.920;11.612;2022-08-27T14:27:18;7.53;;;6.10;;
22794;SDS011;11564;50.920;11.612;2022-08-27T14:29:44;8.47;;;6.40;;
22794;SDS011;11564;50.920;11.612;2022-08-27T14:32:12;7.10;;;6.40;;
22794;SDS011;11564;50.920;11.612;2022-08-27T14:34:38;13.53;;;7.43;;
22794;SDS011;11564;50.920;11.612;2022-08-27T14:37:04;9.70;;;7.40;;
22794;SDS011;11564;50.920;11.612;2022-08-27T14:39:31;13.70;;;7.60;;
22794;SDS011;11564;50.920;11.612;2022-08-27T14:41:56;9.40;;;7.73;;
22794;SDS011;11564;50.920;11.612;2022-08-27T14:44:22;11.03;;;8.93;;
22794;SDS011;11564;50.920;11.612;2022-08-27T14:46:48;10.20;;;7.80;;
22794;SDS011;11564;50.920;11.612;2022-08-27T14:49:15;9.13;;;7.83;;
22794;SDS011;11564;50.920;11.612;2022-08-27T14:51:49;11.87;;;8.90;;
22794;SDS011;11564;50.920;11.612;2022-08-27T14:54:15;15.27;;;9.63;;
22794;SDS011;11564;50.920;11.612;2022-08-27T14:56:41;15.43;;;9.63;;
22794;SDS011;11564;50.920;11.612;2022-08-27T14:59:06;15.23;;;10.30;;
22794;SDS011;11564;50.920;11.612;2022-08-27T15:01:32;19.13;;;9.23;;
22794;SDS011;11564;50.920;11.612;2022-08-27T15:04:01;14.10;;;8.93;;
22794;SDS011;11564;50.920;11.612;2022-08-27T15:06:27;16.70;;;9.30;;
22794;SDS011;11564;50.920;11.612;2022-08-27T15:08:52;24.93;;;10.50;;
22794;SDS011;11564;50.920;11.612;2022-08-27T15:11:29;12.53;;;10.00;;
22794;SDS011;11564;50.920;11.612;2022-08-27T15:13:57;12.47;;;8.27;;
22794;SDS011;11564;50.920;11.612;2022-08-27T15:16:25;12.07;;;8.40;;
22794;SDS011;11564;50.920;11.612;2022-08-27T15:18:59;12.40;;;8.40;;
22794;SDS011;11564;50.920;11.612;2022-08-27T15:21:25;9.93;;;8.53;;
22794;SDS011;11564;50.920;11.612;2022-08-27T15:23:54;8.77;;;7.87;;
22794;SDS011;11564;50.920;11.612;2022-08-27T15:26:24;12.63;;;8.47;;
22794;SDS011;11564;50.920;11.612;2022-08-27T15:28:50;8.63;;;7.60;;
22794;SDS011;11564;50.920;11.612;2022-08-27T15:31:15;9.43;;;8.53;;
22794;SDS011;11564;50.920;11.612;2022-08-27T15:33:42;9.43;;;8.37;;
22794;SDS011;11564;50.920;11.612;2022-08-27T15:36:09;10.83;;;9.73;;
22794;SDS011;11564;50.920;11.612;2022-08-27T15:38:35;9.37;;;8.50;;
22794;SDS011;11564;50.920;11.612;2022-08-27T15:41:01;11.63;;;9.13;;
22794;SDS011;11564;50.920;11.612;2022-08-27T15:43:27;13.00;;;8.80;;
22794;SDS011;11564;50.920;11.612;2022-08-27T15:45:52;10.53;;;8.63;;
22794;SDS011;11564;50.920;11.612;2022-08-27T15:48:18;16.53;;;9.90;;
22794;SDS011;11564;50.920;11.612;2022-08-27T15:50:45;13.60;;;8.47;;
22794;SDS011;11564;50.920;11.612;2022-08-27T15:53:11;14.83;;;8.77;;
22794;SDS011;11564;50.920;11.612;2022-08-27T15:55:37;13.63;;;8.90;;
22794;SDS011;11564;50.920;11.612;2022-08-27T15:58:06;13.13;;;8.80;;
22794;SDS011;11564;50.920;11.612;2022-08-27T16:00:33;12.07;;;7.60;;
22794;SDS011;11564;50.920;11.612;2022-08-27T16:03:02;12.37;;;6.90;;
22794;SDS011;11564;50.920;11.612;2022-08-27T16:05:30;8.30;;;6.20;;
22794;SDS011;11564;50.920;11.612;2022-08-27T16:07:58;11.37;;;6.67;;
22794;SDS011;11564;50.920;11.612;2022-08-27T16:10:24;14.57;;;6.90;;
22794;SDS011;11564;50.920;11.612;2022-08-27T16:12:50;8.03;;;7.00;;
22794;SDS011;11564;50.920;11.612;2022-08-27T16:15:16;11.80;;;7.27;;
22794;SDS011;11564;50.920;11.612;2022-08-27T16:17:42;8.17;;;5.47;;
22794;SDS011;11564;50.920;11.612;2022-08-27T16:20:10;7.00;;;6.00;;
22794;SDS011;11564;50.920;11.612;2022-08-27T16:22:37;9.73;;;5.10;;
22794;SDS011;11564;50.920;11.612;2022-08-27T16:25:03;10.33;;;5.97;;
22794;SDS011;11564;50.920;11.612;2022-08-27T16:27:31;6.63;;;5.17;;
22794;SDS011;11564;50.920;11.612;2022-08-27T16:29:57;5.60;;;5.10;;
22794;SDS011;11564;50.920;11.612;2022-08-27T16:32:23;8.33;;;5.60;;
22794;SDS011;11564;50.920;11.612;2022-08-27T16:34:48;11.37;;;5.43;;
22794;SDS011;11564;50.920;11.612;2022-08-27T16:37:14;21.10;;;5.40;;
22794;SDS011;11564;50.920;11.612;2022-08-27T16:39:40;6.40;;;4.40;;
22794;SDS011;11564;50.920;11.612;2022-08-27T16:42:05;6.93;;;4.90;;
22794;SDS011;11564;50.920;11.612;2022-08-27T16:44:34;6.23;;;4.83;;
22794;SDS011;11564;50.920;11.612;2022-08-27T16:47:00;9.80;;;5.50;;
22794;SDS011;11564;50.920;11.612;2022-08-27T16:49:25;5.50;;;5.00;;
22794;SDS011;11564;50.920;11.612;2022-08-27T16:52:09;7.97;;;5.50;;
22794;SDS011;11564;50.920;11.612;2022-08-27T16:54:35;5.87;;;5.27;;
22794;SDS011;11564;50.920;11.612;2022-08-27T16:57:01;5.63;;;4.43;;
22794;SDS011;11564;50.920;11.612;2022-08-27T16:59:27;9.80;;;5.10;;
22794;SDS011;11564;50.920;11.612;2022-08-27T17:01:53;7.47;;;5.70;;
22794;SDS011;11564;50.920;11.612;2022-08-27T17:04:19;5.77;;;5.10;;
22794;SDS011;11564;50.920;11.612;2022-08-27T17:06:45;6.53;;;5.63;;
22794;SDS011;11564;50.920;11.612;2022-08-27T17:09:11;5.77;;;5.13;;
22794;SDS011;11564;50.920;11.612;2022-08-27T17:11:38;8.73;;;6.30;;
22794;SDS011;11564;50.920;11.612;2022-08-27T17:14:07;6.50;;;5.90;;
22794;SDS011;11564;50.920;11.612;2022-08-27T17:16:36;7.27;;;5.57;;
22794;SDS011;11564;50.920;11.612;2022-08-27T17:19:04;8.53;;;5.70;;
22794;SDS011;11564;50.920;11.612;2022-08-27T17:21:30;7.73;;;6.83;;
22794;SDS011;11564;50.920;11.612;2022-08-27T17:23:57;9.33;;;6.57;;
22794;SDS011;11564;50.920;11.612;2022-08-27T17:26:26;8.90;;;7.03;;
22794;SDS011;11564;50.920;11.612;2022-08-27T17:28:53;14.33;;;7.17;;
22794;SDS011;11564;50.920;11.612;2022-08-27T17:31:19;13.27;;;7.33;;
22794;SDS011;11564;50.920;11.612;2022-08-27T17:33:52;8.00;;;7.00;;
22794;SDS011;11564;50.920;11.612;2022-08-27T17:36:19;14.53;;;6.63;;
22794;SDS011;11564;50.920;11.612;2022-08-27T17:38:45;9.80;;;7.97;;
22794;SDS011;11564;50.920;11.612;2022-08-27T17:41:15;10.90;;;7.17;;
22794;SDS011;11564;50.920;11.612;2022-08-27T17:43:51;9.30;;;7.80;;
22794;SDS011;11564;50.920;11.612;2022-08-27T17:46:18;16.37;;;7.60;;
22794;SDS011;11564;50.920;11.612;2022-08-27T17:48:44;12.90;;;7.40;;
22794;SDS011;11564;50.920;11.612;2022-08-27T17:51:10;11.43;;;7.33;;
22794;SDS011;11564;50.920;11.612;2022-08-27T17:53:37;8.03;;;7.17;;
22794;SDS011;11564;50.920;11.612;2022-08-27T17:56:11;7.37;;;6.67;;
22794;SDS011;11564;50.920;11.612;2022-08-27T17:58:37;9.90;;;6.47;;
22794;SDS011;11564;50.920;11.612;2022-08-27T18:01:02;6.77;;;6.07;;
22794;SDS011;11564;50.920;11.612;2022-08-27T18:03:28;10.43;;;6.73;;
22794;SDS011;11564;50.920;11.612;2022-08-27T18:05:54;9.07;;;6.60;;
22794;SDS011;11564;50.920;11.612;2022-08-27T18:08:19;8.93;;;6.00;;
22794;SDS011;11564;50.920;11.612;2022-08-27T18:10:45;18.43;;;7.13;;
22794;SDS011;11564;50.920;11.612;2022-08-27T18:13:11;6.83;;;6.20;;
22794;SDS011;11564;50.920;11.612;2022-08-27T18:15:38;8.47;;;6.90;;
22794;SDS011;11564;50.920;11.612;2022-08-27T18:18:05;13.10;;;6.83;;
22794;SDS011;11564;50.920;11.612;2022-08-27T18:20:32;11.50;;;7.60;;
22794;SDS011;11564;50.920;11.612;2022-08-27T18:22:58;6.63;;;6.13;;
22794;SDS011;11564;50.920;11.612;2022-08-27T18:25:24;9.23;;;7.30;;
22794;SDS011;11564;50.920;11.612;2022-08-27T18:27:54;11.70;;;6.30;;
22794;SDS011;11564;50.920;11.612;2022-08-27T18:30:23;8.60;;;6.30;;
22794;SDS011;11564;50.920;11.612;2022-08-27T18:32:50;7.35;;;6.20;;
22794;SDS011;11564;50.920;11.612;2022-08-27T18:38:02;11.70;;;6.93;;
22794;SDS011;11564;50.920;11.612;2022-08-27T18:40:29;11.00;;;6.65;;
22794;SDS011;11564;50.920;11.612;2022-08-27T18:42:59;8.13;;;7.23;;
22794;SDS011;11564;50.920;11.612;2022-08-27T18:45:26;13.60;;;7.90;;
22794;SDS011;11564;50.920;11.612;2022-08-27T18:47:54;11.10;;;7.83;;
22794;SDS011;11564;50.920;11.612;2022-08-27T18:50:23;15.97;;;7.50;;
22794;SDS011;11564;50.920;11.612;2022-08-27T18:52:50;12.90;;;7.75;;
22794;SDS011;11564;50.920;11.612;2022-08-27T18:55:18;13.80;;;8.30;;
22794;SDS011;11564;50.920;11.612;2022-08-27T18:57:46;10.30;;;8.50;;
22794;SDS011;11564;50.920;11.612;2022-08-27T19:00:13;9.90;;;7.90;;
22794;SDS011;11564;50.920;11.612;2022-08-27T19:02:40;14.03;;;8.77;;
22794;SDS011;11564;50.920;11.612;2022-08-27T19:05:07;13.80;;;8.93;;
22794;SDS011;11564;50.920;11.612;2022-08-27T19:09:59;14.80;;;9.60;;
22794;SDS011;11564;50.920;11.612;2022-08-27T19:12:25;14.07;;;9.97;;
22794;SDS011;11564;50.920;11.612;2022-08-27T19:17:21;11.20;;;9.10;;
22794;SDS011;11564;50.920;11.612;2022-08-27T19:22:21;12.03;;;9.37;;
22794;SDS011;11564;50.920;11.612;2022-08-27T19:24:47;17.90;;;10.40;;
22794;SDS011;11564;50.920;11.612;2022-08-27T19:27:14;16.27;;;10.10;;
